Appleby, South Dakota
Current Conditions -  °F | °C
As of 6:53 AM on Wednesday 26 Nov 2014 (Local Time) from KATY Reporting Station
Light Snow Light Snow  
Wind Chill: -3°   Ceiling: 3500
Heat Index: 15°   Visibility: 2.5mi
Dew Point: 11°   Wind: 22mph
Humidity: 84%   Direction: 10°N
Pressure: 30.1"   Gusts: NA
Location:  44.9156°N, 97.1699°W
Report Text: KATY 261253Z AUTO 01019KT 2 1/2SM -SN BR OVC035 M09/M12 A3010 RMK AO2 PK WND 02030/1156 SLP221 P0000 T10941117
Loading
Personal Weather Stations






























Interactive Weather Map New forecast layout! Learn more

10-Day Weather Forecast

Advertisements
Track Severe Weather on mobile